This is the latest recevied weather packets stored in our database for station/object T77NM. If no packets are shown the sender has not sent any weather packets the latest 10 day(s).
| Time | Temp. | Humidity | Pressure | Rain* | Wind** | Luminosity | Snow |
|---|---|---|---|---|---|---|---|
| 1778251542 | 15.56° C | 79% | 1014.9 hPa | 0 mm | - | 237 W/m² | - |
| 1778243437 | 16.67° C | 75% | 1015 hPa | 0 mm | - | 492 W/m² | - |
| 1778234426 | 15° C | 87% | 1015.1 hPa | 0 mm | - | 95 W/m² | - |
| 1778232628 | 14.44° C | 86% | 1015.1 hPa | 0 mm | - | 239 W/m² | - |
| 1778231721 | 14.44° C | 86% | 1015.1 hPa | 0 mm | - | 181 W/m² | - |
| 1778229018 | 13.89° C | 85% | 1015 hPa | 0 mm | - | 160 W/m² | - |
| 1778222710 | 13.89° C | 83% | 1014.1 hPa | 0 mm | - | 88 W/m² | - |
| 1778220905 | 13.89° C | 83% | 1014.1 hPa | 0 mm | - | 72 W/m² | - |
| 1778219108 | 13.89° C | 84% | 1013.9 hPa | 0 mm | - | 42 W/m² | - |
| 1778210156 | 12.78° C | 86% | 1012.9 hPa | 0 mm | - | 0 W/m² | - |
| 1778195739 | 14.44° C | 80% | 1013.6 hPa | 0 mm | - | 0 W/m² | - |
| 1778183122 | 15.56° C | 79% | 1013.7 hPa | 0 mm | - | 0 W/m² | - |
| 1778182216 | 15.56° C | 79% | 1013.6 hPa | 0 mm | - | 0 W/m² | - |
| 1778165105 | 19.44° C | 61% | 1012.7 hPa | 0 mm | - | 698 W/m² | - |
| 1778158801 | 19.44° C | 60% | 1012.9 hPa | 0 mm | - | 1028 W/m² | - |
| 1778142634 | 17.22° C | 49% | 1013.2 hPa | 0 mm | - | 784 W/m² | - |
| 1778139930 | 17.22° C | 56% | 1012.8 hPa | 0 mm | - | 455 W/m² | - |
| 1778139029 | 17.22° C | 58% | 1012.8 hPa | 0 mm | - | 698 W/m² | - |
| 1778129155 | 14.44° C | 71% | 1012.1 hPa | 0 mm | - | 32 W/m² | - |
| 1778121041 | 14.44° C | 75% | 1011.4 hPa | 0 mm | - | 0 W/m² | - |
| 1778120139 | 14.44° C | 75% | 1011.4 hPa | 0 mm | - | 0 W/m² | - |
| 1778117496 | 15° C | 75% | 1011.4 hPa | 0 mm | - | 0 W/m² | - |
| 1778108414 | 15° C | 73% | 1011.7 hPa | 0 mm | - | 0 W/m² | - |
| 1778100307 | 15.56° C | 73% | 1011.8 hPa | 0 mm | - | 0 W/m² | - |
| 1778097610 | 15.56° C | 74% | 1011.4 hPa | 0 mm | - | 0 W/m² | - |
* Rain latest hour (hover to see other rain measurements)
** Current wind speed in m/s (hover to see current wind gust speed)